sensor_id;sensor_type;location;lat;lon;timestamp;P1;durP1;ratioP1;P2;durP2;ratioP2
25905;SDS011;13713;52.552;13.204;2023-04-15T00:00:02;29.15;;;18.38;;
25905;SDS011;13713;52.552;13.204;2023-04-15T00:02:38;29.95;;;19.10;;
25905;SDS011;13713;52.552;13.204;2023-04-15T00:05:04;31.35;;;19.30;;
25905;SDS011;13713;52.552;13.204;2023-04-15T00:07:30;27.67;;;17.60;;
25905;SDS011;13713;52.552;13.204;2023-04-15T00:09:57;29.70;;;19.23;;
25905;SDS011;13713;52.552;13.204;2023-04-15T00:12:23;30.85;;;19.80;;
25905;SDS011;13713;52.552;13.204;2023-04-15T00:14:50;32.75;;;19.27;;
25905;SDS011;13713;52.552;13.204;2023-04-15T00:17:16;28.38;;;17.83;;
25905;SDS011;13713;52.552;13.204;2023-04-15T00:19:42;31.25;;;18.23;;
25905;SDS011;13713;52.552;13.204;2023-04-15T00:22:09;29.65;;;17.77;;
25905;SDS011;13713;52.552;13.204;2023-04-15T00:24:36;28.52;;;18.65;;
25905;SDS011;13713;52.552;13.204;2023-04-15T00:27:02;28.83;;;18.45;;
25905;SDS011;13713;52.552;13.204;2023-04-15T00:29:28;33.03;;;19.60;;
25905;SDS011;13713;52.552;13.204;2023-04-15T00:31:54;29.45;;;18.33;;
25905;SDS011;13713;52.552;13.204;2023-04-15T00:34:21;27.20;;;17.80;;
25905;SDS011;13713;52.552;13.204;2023-04-15T00:36:51;29.67;;;18.77;;
25905;SDS011;13713;52.552;13.204;2023-04-15T00:39:18;29.35;;;19.00;;
25905;SDS011;13713;52.552;13.204;2023-04-15T00:41:45;30.00;;;18.98;;
25905;SDS011;13713;52.552;13.204;2023-04-15T00:44:11;28.30;;;18.95;;
25905;SDS011;13713;52.552;13.204;2023-04-15T00:46:37;29.85;;;19.50;;
25905;SDS011;13713;52.552;13.204;2023-04-15T00:49:04;31.33;;;19.23;;
25905;SDS011;13713;52.552;13.204;2023-04-15T00:51:32;31.23;;;18.80;;
25905;SDS011;13713;52.552;13.204;2023-04-15T00:54:00;32.50;;;20.40;;
25905;SDS011;13713;52.552;13.204;2023-04-15T00:56:27;31.70;;;20.00;;
25905;SDS011;13713;52.552;13.204;2023-04-15T00:58:54;30.73;;;20.88;;
25905;SDS011;13713;52.552;13.204;2023-04-15T01:01:20;30.42;;;19.48;;
25905;SDS011;13713;52.552;13.204;2023-04-15T01:03:50;30.58;;;20.35;;
25905;SDS011;13713;52.552;13.204;2023-04-15T01:06:17;31.00;;;19.77;;
25905;SDS011;13713;52.552;13.204;2023-04-15T01:08:43;28.88;;;19.27;;
25905;SDS011;13713;52.552;13.204;2023-04-15T01:11:10;33.97;;;20.60;;
25905;SDS011;13713;52.552;13.204;2023-04-15T01:13:38;29.67;;;19.25;;
25905;SDS011;13713;52.552;13.204;2023-04-15T01:16:04;33.10;;;20.08;;
25905;SDS011;13713;52.552;13.204;2023-04-15T01:18:30;32.10;;;20.05;;
25905;SDS011;13713;52.552;13.204;2023-04-15T01:20:58;33.15;;;19.80;;
25905;SDS011;13713;52.552;13.204;2023-04-15T01:23:26;33.72;;;20.33;;
25905;SDS011;13713;52.552;13.204;2023-04-15T01:25:53;31.90;;;19.73;;
25905;SDS011;13713;52.552;13.204;2023-04-15T01:28:20;30.85;;;19.45;;
25905;SDS011;13713;52.552;13.204;2023-04-15T01:30:45;29.42;;;19.13;;
25905;SDS011;13713;52.552;13.204;2023-04-15T01:33:13;32.72;;;19.83;;
25905;SDS011;13713;52.552;13.204;2023-04-15T01:35:38;32.55;;;20.42;;
25905;SDS011;13713;52.552;13.204;2023-04-15T01:38:05;30.95;;;20.38;;
25905;SDS011;13713;52.552;13.204;2023-04-15T01:40:33;32.33;;;20.23;;
25905;SDS011;13713;52.552;13.204;2023-04-15T01:42:59;33.35;;;20.75;;
25905;SDS011;13713;52.552;13.204;2023-04-15T01:45:26;33.05;;;20.95;;
25905;SDS011;13713;52.552;13.204;2023-04-15T01:47:52;29.75;;;19.67;;
25905;SDS011;13713;52.552;13.204;2023-04-15T01:50:18;32.67;;;20.27;;
25905;SDS011;13713;52.552;13.204;2023-04-15T01:52:45;31.95;;;20.27;;
25905;SDS011;13713;52.552;13.204;2023-04-15T01:55:13;33.92;;;21.33;;
25905;SDS011;13713;52.552;13.204;2023-04-15T01:57:39;32.30;;;20.40;;
25905;SDS011;13713;52.552;13.204;2023-04-15T02:00:05;31.85;;;20.52;;
25905;SDS011;13713;52.552;13.204;2023-04-15T02:02:40;31.70;;;20.05;;
25905;SDS011;13713;52.552;13.204;2023-04-15T02:05:06;30.25;;;20.15;;
25905;SDS011;13713;52.552;13.204;2023-04-15T02:07:32;32.75;;;21.10;;
25905;SDS011;13713;52.552;13.204;2023-04-15T02:09:58;30.30;;;19.77;;
25905;SDS011;13713;52.552;13.204;2023-04-15T02:12:23;36.20;;;20.98;;
25905;SDS011;13713;52.552;13.204;2023-04-15T02:14:50;33.92;;;21.92;;
25905;SDS011;13713;52.552;13.204;2023-04-15T02:17:15;33.95;;;20.67;;
25905;SDS011;13713;52.552;13.204;2023-04-15T02:19:41;33.80;;;20.02;;
25905;SDS011;13713;52.552;13.204;2023-04-15T02:22:07;29.52;;;19.58;;
25905;SDS011;13713;52.552;13.204;2023-04-15T02:24:33;33.20;;;20.45;;
25905;SDS011;13713;52.552;13.204;2023-04-15T02:27:01;34.15;;;21.05;;
25905;SDS011;13713;52.552;13.204;2023-04-15T02:29:27;33.80;;;21.33;;
25905;SDS011;13713;52.552;13.204;2023-04-15T02:31:53;33.20;;;21.60;;
25905;SDS011;13713;52.552;13.204;2023-04-15T02:34:19;31.30;;;20.95;;
25905;SDS011;13713;52.552;13.204;2023-04-15T02:36:44;33.88;;;21.23;;
25905;SDS011;13713;52.552;13.204;2023-04-15T02:39:13;32.95;;;21.23;;
25905;SDS011;13713;52.552;13.204;2023-04-15T02:41:41;33.63;;;21.38;;
25905;SDS011;13713;52.552;13.204;2023-04-15T02:44:09;37.42;;;22.05;;
25905;SDS011;13713;52.552;13.204;2023-04-15T02:46:37;36.40;;;21.15;;
25905;SDS011;13713;52.552;13.204;2023-04-15T02:49:03;38.92;;;23.38;;
25905;SDS011;13713;52.552;13.204;2023-04-15T02:51:29;35.72;;;21.75;;
25905;SDS011;13713;52.552;13.204;2023-04-15T02:53:56;32.47;;;20.58;;
25905;SDS011;13713;52.552;13.204;2023-04-15T02:56:22;34.42;;;21.88;;
25905;SDS011;13713;52.552;13.204;2023-04-15T02:58:48;34.03;;;21.08;;
25905;SDS011;13713;52.552;13.204;2023-04-15T03:01:14;35.58;;;21.23;;
25905;SDS011;13713;52.552;13.204;2023-04-15T03:03:40;35.63;;;22.02;;
25905;SDS011;13713;52.552;13.204;2023-04-15T03:06:06;35.53;;;21.95;;
25905;SDS011;13713;52.552;13.204;2023-04-15T03:08:33;34.35;;;21.08;;
25905;SDS011;13713;52.552;13.204;2023-04-15T03:10:59;32.92;;;21.42;;
25905;SDS011;13713;52.552;13.204;2023-04-15T03:13:26;37.65;;;22.33;;
25905;SDS011;13713;52.552;13.204;2023-04-15T03:15:54;34.55;;;21.73;;
25905;SDS011;13713;52.552;13.204;2023-04-15T03:18:21;34.58;;;21.10;;
25905;SDS011;13713;52.552;13.204;2023-04-15T03:20:47;33.78;;;22.00;;
25905;SDS011;13713;52.552;13.204;2023-04-15T03:23:13;36.55;;;22.15;;
25905;SDS011;13713;52.552;13.204;2023-04-15T03:25:39;37.28;;;21.92;;
25905;SDS011;13713;52.552;13.204;2023-04-15T03:28:06;34.88;;;22.13;;
25905;SDS011;13713;52.552;13.204;2023-04-15T03:30:32;35.85;;;22.42;;
25905;SDS011;13713;52.552;13.204;2023-04-15T03:32:57;37.63;;;22.42;;
25905;SDS011;13713;52.552;13.204;2023-04-15T03:35:24;37.03;;;23.05;;
25905;SDS011;13713;52.552;13.204;2023-04-15T03:37:50;34.75;;;21.00;;
25905;SDS011;13713;52.552;13.204;2023-04-15T03:40:15;36.05;;;23.25;;
25905;SDS011;13713;52.552;13.204;2023-04-15T03:42:41;33.88;;;22.13;;
25905;SDS011;13713;52.552;13.204;2023-04-15T03:45:07;37.17;;;22.88;;
25905;SDS011;13713;52.552;13.204;2023-04-15T03:47:33;37.17;;;22.83;;
25905;SDS011;13713;52.552;13.204;2023-04-15T03:49:58;34.25;;;22.23;;
25905;SDS011;13713;52.552;13.204;2023-04-15T03:52:24;37.72;;;22.55;;
25905;SDS011;13713;52.552;13.204;2023-04-15T03:54:50;37.05;;;23.33;;
25905;SDS011;13713;52.552;13.204;2023-04-15T03:57:16;36.72;;;22.70;;
25905;SDS011;13713;52.552;13.204;2023-04-15T03:59:42;35.60;;;23.38;;
25905;SDS011;13713;52.552;13.204;2023-04-15T04:02:07;36.15;;;22.48;;
25905;SDS011;13713;52.552;13.204;2023-04-15T04:04:33;37.58;;;23.30;;
25905;SDS011;13713;52.552;13.204;2023-04-15T04:06:59;36.35;;;23.13;;
25905;SDS011;13713;52.552;13.204;2023-04-15T04:09:25;39.00;;;23.40;;
25905;SDS011;13713;52.552;13.204;2023-04-15T04:11:50;37.78;;;23.38;;
25905;SDS011;13713;52.552;13.204;2023-04-15T04:14:16;37.35;;;23.00;;
25905;SDS011;13713;52.552;13.204;2023-04-15T04:16:42;39.83;;;23.75;;
25905;SDS011;13713;52.552;13.204;2023-04-15T04:19:07;41.58;;;25.05;;
25905;SDS011;13713;52.552;13.204;2023-04-15T04:21:33;36.33;;;22.20;;
25905;SDS011;13713;52.552;13.204;2023-04-15T04:23:59;41.25;;;24.70;;
25905;SDS011;13713;52.552;13.204;2023-04-15T04:26:24;36.92;;;22.98;;
25905;SDS011;13713;52.552;13.204;2023-04-15T04:28:51;39.38;;;23.67;;
25905;SDS011;13713;52.552;13.204;2023-04-15T04:31:17;39.17;;;24.52;;
25905;SDS011;13713;52.552;13.204;2023-04-15T04:33:42;40.88;;;25.35;;
25905;SDS011;13713;52.552;13.204;2023-04-15T04:36:08;43.85;;;25.60;;
25905;SDS011;13713;52.552;13.204;2023-04-15T04:38:34;42.25;;;25.63;;
25905;SDS011;13713;52.552;13.204;2023-04-15T04:41:00;40.70;;;24.73;;
25905;SDS011;13713;52.552;13.204;2023-04-15T04:43:25;41.00;;;24.25;;
25905;SDS011;13713;52.552;13.204;2023-04-15T04:45:51;41.13;;;24.75;;
25905;SDS011;13713;52.552;13.204;2023-04-15T04:48:17;46.00;;;27.20;;
25905;SDS011;13713;52.552;13.204;2023-04-15T04:50:43;39.40;;;24.38;;
25905;SDS011;13713;52.552;13.204;2023-04-15T04:53:09;41.03;;;25.35;;
25905;SDS011;13713;52.552;13.204;2023-04-15T04:55:36;35.55;;;22.40;;
25905;SDS011;13713;52.552;13.204;2023-04-15T04:58:01;41.40;;;24.80;;
25905;SDS011;13713;52.552;13.204;2023-04-15T05:00:27;42.92;;;24.98;;
25905;SDS011;13713;52.552;13.204;2023-04-15T05:02:53;38.22;;;24.67;;
25905;SDS011;13713;52.552;13.204;2023-04-15T05:05:20;39.83;;;24.98;;
25905;SDS011;13713;52.552;13.204;2023-04-15T05:07:46;39.75;;;24.52;;
25905;SDS011;13713;52.552;13.204;2023-04-15T05:10:13;41.42;;;25.42;;
25905;SDS011;13713;52.552;13.204;2023-04-15T05:12:39;40.63;;;24.83;;
25905;SDS011;13713;52.552;13.204;2023-04-15T05:15:05;44.08;;;24.95;;
25905;SDS011;13713;52.552;13.204;2023-04-15T05:17:31;44.42;;;27.35;;
25905;SDS011;13713;52.552;13.204;2023-04-15T05:19:59;43.13;;;26.15;;
25905;SDS011;13713;52.552;13.204;2023-04-15T05:22:25;42.08;;;26.48;;
25905;SDS011;13713;52.552;13.204;2023-04-15T05:24:51;44.78;;;27.00;;
25905;SDS011;13713;52.552;13.204;2023-04-15T05:27:17;45.22;;;27.95;;
25905;SDS011;13713;52.552;13.204;2023-04-15T05:29:43;43.15;;;26.75;;
25905;SDS011;13713;52.552;13.204;2023-04-15T05:32:09;40.45;;;24.95;;
25905;SDS011;13713;52.552;13.204;2023-04-15T05:34:35;42.85;;;26.45;;
25905;SDS011;13713;52.552;13.204;2023-04-15T05:37:01;41.88;;;25.88;;
25905;SDS011;13713;52.552;13.204;2023-04-15T05:39:27;43.38;;;26.98;;
25905;SDS011;13713;52.552;13.204;2023-04-15T05:41:53;38.78;;;24.25;;
25905;SDS011;13713;52.552;13.204;2023-04-15T05:44:18;42.28;;;25.83;;
25905;SDS011;13713;52.552;13.204;2023-04-15T05:46:44;41.47;;;26.15;;
25905;SDS011;13713;52.552;13.204;2023-04-15T05:49:10;42.13;;;27.05;;
25905;SDS011;13713;52.552;13.204;2023-04-15T05:51:36;42.83;;;26.08;;
25905;SDS011;13713;52.552;13.204;2023-04-15T05:54:01;44.40;;;26.73;;
25905;SDS011;13713;52.552;13.204;2023-04-15T05:56:27;42.72;;;27.15;;
25905;SDS011;13713;52.552;13.204;2023-04-15T05:58:53;43.88;;;27.48;;
25905;SDS011;13713;52.552;13.204;2023-04-15T06:01:18;42.40;;;26.45;;
25905;SDS011;13713;52.552;13.204;2023-04-15T06:03:44;39.65;;;25.73;;
25905;SDS011;13713;52.552;13.204;2023-04-15T06:06:10;43.50;;;26.80;;
25905;SDS011;13713;52.552;13.204;2023-04-15T06:08:36;43.30;;;25.75;;
25905;SDS011;13713;52.552;13.204;2023-04-15T06:11:02;42.80;;;26.77;;
25905;SDS011;13713;52.552;13.204;2023-04-15T06:13:28;43.55;;;26.98;;
25905;SDS011;13713;52.552;13.204;2023-04-15T06:15:53;41.25;;;27.25;;
25905;SDS011;13713;52.552;13.204;2023-04-15T06:18:19;44.08;;;26.20;;
25905;SDS011;13713;52.552;13.204;2023-04-15T06:20:45;45.92;;;26.52;;
25905;SDS011;13713;52.552;13.204;2023-04-15T06:23:11;44.15;;;27.80;;
25905;SDS011;13713;52.552;13.204;2023-04-15T06:25:36;45.17;;;27.73;;
25905;SDS011;13713;52.552;13.204;2023-04-15T06:28:02;43.42;;;26.98;;
25905;SDS011;13713;52.552;13.204;2023-04-15T06:30:28;44.03;;;26.95;;
25905;SDS011;13713;52.552;13.204;2023-04-15T06:32:54;42.15;;;26.60;;
25905;SDS011;13713;52.552;13.204;2023-04-15T06:35:20;41.15;;;26.55;;
25905;SDS011;13713;52.552;13.204;2023-04-15T06:37:46;40.63;;;26.67;;
25905;SDS011;13713;52.552;13.204;2023-04-15T06:40:11;42.35;;;26.52;;
25905;SDS011;13713;52.552;13.204;2023-04-15T06:42:37;43.05;;;25.95;;
25905;SDS011;13713;52.552;13.204;2023-04-15T06:45:03;43.70;;;27.40;;
25905;SDS011;13713;52.552;13.204;2023-04-15T06:47:31;38.45;;;24.92;;
25905;SDS011;13713;52.552;13.204;2023-04-15T06:49:56;40.75;;;26.88;;
25905;SDS011;13713;52.552;13.204;2023-04-15T06:52:22;42.15;;;26.45;;
25905;SDS011;13713;52.552;13.204;2023-04-15T06:54:48;42.70;;;26.75;;
25905;SDS011;13713;52.552;13.204;2023-04-15T06:57:13;40.88;;;26.67;;
25905;SDS011;13713;52.552;13.204;2023-04-15T06:59:39;39.03;;;26.30;;
25905;SDS011;13713;52.552;13.204;2023-04-15T07:02:05;43.60;;;25.90;;
25905;SDS011;13713;52.552;13.204;2023-04-15T07:04:36;40.90;;;26.38;;
25905;SDS011;13713;52.552;13.204;2023-04-15T07:07:02;40.60;;;24.67;;
25905;SDS011;13713;52.552;13.204;2023-04-15T07:09:27;38.15;;;25.63;;
25905;SDS011;13713;52.552;13.204;2023-04-15T07:11:53;39.70;;;26.05;;
25905;SDS011;13713;52.552;13.204;2023-04-15T07:14:19;41.08;;;27.08;;
25905;SDS011;13713;52.552;13.204;2023-04-15T07:16:45;38.25;;;25.92;;
25905;SDS011;13713;52.552;13.204;2023-04-15T07:19:11;40.40;;;25.42;;
25905;SDS011;13713;52.552;13.204;2023-04-15T07:21:37;41.30;;;25.85;;
25905;SDS011;13713;52.552;13.204;2023-04-15T07:24:02;41.40;;;26.08;;
25905;SDS011;13713;52.552;13.204;2023-04-15T07:26:28;38.38;;;23.73;;
25905;SDS011;13713;52.552;13.204;2023-04-15T07:28:54;39.13;;;25.63;;
25905;SDS011;13713;52.552;13.204;2023-04-15T07:31:20;42.75;;;26.67;;
25905;SDS011;13713;52.552;13.204;2023-04-15T07:33:46;36.78;;;25.17;;
25905;SDS011;13713;52.552;13.204;2023-04-15T07:36:11;41.03;;;26.13;;
25905;SDS011;13713;52.552;13.204;2023-04-15T07:38:38;37.20;;;24.13;;
25905;SDS011;13713;52.552;13.204;2023-04-15T07:41:04;40.80;;;25.13;;
25905;SDS011;13713;52.552;13.204;2023-04-15T07:43:30;39.15;;;25.45;;
25905;SDS011;13713;52.552;13.204;2023-04-15T07:45:55;38.75;;;25.40;;
25905;SDS011;13713;52.552;13.204;2023-04-15T07:48:21;40.67;;;25.58;;
25905;SDS011;13713;52.552;13.204;2023-04-15T07:50:47;38.42;;;24.35;;
25905;SDS011;13713;52.552;13.204;2023-04-15T07:53:12;37.30;;;25.17;;
25905;SDS011;13713;52.552;13.204;2023-04-15T07:55:38;38.47;;;25.17;;
25905;SDS011;13713;52.552;13.204;2023-04-15T07:58:04;39.08;;;25.98;;
25905;SDS011;13713;52.552;13.204;2023-04-15T08:00:30;37.53;;;26.02;;
25905;SDS011;13713;52.552;13.204;2023-04-15T08:02:56;39.90;;;26.17;;
25905;SDS011;13713;52.552;13.204;2023-04-15T08:05:23;39.30;;;24.92;;
25905;SDS011;13713;52.552;13.204;2023-04-15T08:07:49;37.03;;;24.33;;
25905;SDS011;13713;52.552;13.204;2023-04-15T08:10:15;39.75;;;23.98;;
25905;SDS011;13713;52.552;13.204;2023-04-15T08:12:41;37.60;;;25.52;;
25905;SDS011;13713;52.552;13.204;2023-04-15T08:15:07;40.90;;;26.30;;
25905;SDS011;13713;52.552;13.204;2023-04-15T08:17:33;37.13;;;24.65;;
25905;SDS011;13713;52.552;13.204;2023-04-15T08:19:59;37.17;;;26.02;;
25905;SDS011;13713;52.552;13.204;2023-04-15T08:22:25;39.15;;;25.15;;
25905;SDS011;13713;52.552;13.204;2023-04-15T08:24:51;37.50;;;25.75;;
25905;SDS011;13713;52.552;13.204;2023-04-15T08:27:17;36.58;;;25.55;;
25905;SDS011;13713;52.552;13.204;2023-04-15T08:29:43;38.83;;;25.73;;
25905;SDS011;13713;52.552;13.204;2023-04-15T08:32:09;33.95;;;23.90;;
25905;SDS011;13713;52.552;13.204;2023-04-15T08:34:35;39.50;;;26.00;;
25905;SDS011;13713;52.552;13.204;2023-04-15T08:37:01;38.83;;;25.52;;
25905;SDS011;13713;52.552;13.204;2023-04-15T08:39:26;39.33;;;25.83;;
25905;SDS011;13713;52.552;13.204;2023-04-15T08:41:59;37.78;;;25.17;;
25905;SDS011;13713;52.552;13.204;2023-04-15T08:44:34;36.90;;;25.15;;
25905;SDS011;13713;52.552;13.204;2023-04-15T08:47:03;40.22;;;26.10;;
25905;SDS011;13713;52.552;13.204;2023-04-15T08:49:32;37.97;;;25.08;;
25905;SDS011;13713;52.552;13.204;2023-04-15T08:52:03;39.40;;;26.07;;
25905;SDS011;13713;52.552;13.204;2023-04-15T08:54:29;35.22;;;24.90;;
25905;SDS011;13713;52.552;13.204;2023-04-15T08:56:56;36.00;;;25.67;;
25905;SDS011;13713;52.552;13.204;2023-04-15T08:59:22;37.97;;;26.50;;
25905;SDS011;13713;52.552;13.204;2023-04-15T09:01:49;36.78;;;25.48;;
25905;SDS011;13713;52.552;13.204;2023-04-15T09:04:17;36.80;;;24.83;;
25905;SDS011;13713;52.552;13.204;2023-04-15T09:06:43;36.47;;;24.83;;
25905;SDS011;13713;52.552;13.204;2023-04-15T09:09:09;41.47;;;26.83;;
25905;SDS011;13713;52.552;13.204;2023-04-15T09:11:37;35.20;;;24.88;;
25905;SDS011;13713;52.552;13.204;2023-04-15T09:14:03;37.40;;;25.05;;
25905;SDS011;13713;52.552;13.204;2023-04-15T09:16:28;37.13;;;25.30;;
25905;SDS011;13713;52.552;13.204;2023-04-15T09:18:54;36.00;;;26.00;;
25905;SDS011;13713;52.552;13.204;2023-04-15T09:21:20;38.58;;;26.35;;
25905;SDS011;13713;52.552;13.204;2023-04-15T09:24:21;36.50;;;25.63;;
25905;SDS011;13713;52.552;13.204;2023-04-15T09:26:39;37.33;;;26.15;;
25905;SDS011;13713;52.552;13.204;2023-04-15T09:29:06;36.95;;;25.88;;
25905;SDS011;13713;52.552;13.204;2023-04-15T09:31:33;37.63;;;25.95;;
25905;SDS011;13713;52.552;13.204;2023-04-15T09:33:59;36.92;;;25.20;;
25905;SDS011;13713;52.552;13.204;2023-04-15T09:36:25;35.65;;;25.38;;
25905;SDS011;13713;52.552;13.204;2023-04-15T09:38:57;38.30;;;25.10;;
25905;SDS011;13713;52.552;13.204;2023-04-15T09:41:24;39.95;;;26.60;;
25905;SDS011;13713;52.552;13.204;2023-04-15T09:43:50;37.60;;;25.92;;
25905;SDS011;13713;52.552;13.204;2023-04-15T09:46:17;36.53;;;25.77;;
25905;SDS011;13713;52.552;13.204;2023-04-15T09:48:43;37.40;;;26.30;;
25905;SDS011;13713;52.552;13.204;2023-04-15T09:51:08;38.30;;;25.17;;
25905;SDS011;13713;52.552;13.204;2023-04-15T09:53:35;35.95;;;24.85;;
25905;SDS011;13713;52.552;13.204;2023-04-15T09:56:02;37.08;;;25.98;;
25905;SDS011;13713;52.552;13.204;2023-04-15T09:58:32;36.30;;;25.40;;
25905;SDS011;13713;52.552;13.204;2023-04-15T10:00:59;37.17;;;26.27;;
25905;SDS011;13713;52.552;13.204;2023-04-15T10:05:55;37.90;;;26.63;;
25905;SDS011;13713;52.552;13.204;2023-04-15T10:08:23;35.13;;;25.58;;
25905;SDS011;13713;52.552;13.204;2023-04-15T10:10:54;35.42;;;25.10;;
25905;SDS011;13713;52.552;13.204;2023-04-15T10:13:24;37.15;;;26.50;;
25905;SDS011;13713;52.552;13.204;2023-04-15T10:16:02;41.42;;;27.00;;
25905;SDS011;13713;52.552;13.204;2023-04-15T10:18:33;38.30;;;26.13;;
25905;SDS011;13713;52.552;13.204;2023-04-15T10:21:00;37.35;;;25.73;;
25905;SDS011;13713;52.552;13.204;2023-04-15T10:23:26;38.25;;;25.25;;
25905;SDS011;13713;52.552;13.204;2023-04-15T10:25:52;38.47;;;26.95;;
25905;SDS011;13713;52.552;13.204;2023-04-15T10:28:19;36.72;;;26.02;;
25905;SDS011;13713;52.552;13.204;2023-04-15T10:30:47;38.38;;;25.33;;
25905;SDS011;13713;52.552;13.204;2023-04-15T10:33:14;36.53;;;25.13;;
25905;SDS011;13713;52.552;13.204;2023-04-15T10:35:42;37.72;;;27.35;;
25905;SDS011;13713;52.552;13.204;2023-04-15T10:41:11;36.25;;;25.38;;
25905;SDS011;13713;52.552;13.204;2023-04-15T10:43:44;33.85;;;24.75;;
25905;SDS011;13713;52.552;13.204;2023-04-15T10:46:12;36.13;;;25.90;;
25905;SDS011;13713;52.552;13.204;2023-04-15T10:48:45;36.15;;;25.38;;
25905;SDS011;13713;52.552;13.204;2023-04-15T10:51:15;36.80;;;26.48;;
25905;SDS011;13713;52.552;13.204;2023-04-15T10:53:41;37.55;;;26.33;;
25905;SDS011;13713;52.552;13.204;2023-04-15T10:56:07;36.40;;;25.63;;
25905;SDS011;13713;52.552;13.204;2023-04-15T10:58:40;35.40;;;25.75;;
25905;SDS011;13713;52.552;13.204;2023-04-15T11:01:07;37.58;;;25.80;;
25905;SDS011;13713;52.552;13.204;2023-04-15T11:03:36;37.08;;;25.73;;
25905;SDS011;13713;52.552;13.204;2023-04-15T11:06:05;38.70;;;26.40;;
25905;SDS011;13713;52.552;13.204;2023-04-15T11:14:26;36.92;;;25.15;;
25905;SDS011;13713;52.552;13.204;2023-04-15T11:16:52;34.00;;;24.10;;
25905;SDS011;13713;52.552;13.204;2023-04-15T11:19:18;35.50;;;25.67;;
25905;SDS011;13713;52.552;13.204;2023-04-15T11:21:43;35.28;;;25.23;;
25905;SDS011;13713;52.552;13.204;2023-04-15T11:24:09;35.83;;;26.23;;
25905;SDS011;13713;52.552;13.204;2023-04-15T11:26:35;33.83;;;24.50;;
25905;SDS011;13713;52.552;13.204;2023-04-15T11:29:00;34.40;;;24.80;;
25905;SDS011;13713;52.552;13.204;2023-04-15T11:31:26;36.33;;;25.70;;
25905;SDS011;13713;52.552;13.204;2023-04-15T11:36:18;35.72;;;25.25;;
25905;SDS011;13713;52.552;13.204;2023-04-15T11:38:45;37.97;;;25.02;;
25905;SDS011;13713;52.552;13.204;2023-04-15T11:41:11;34.78;;;24.50;;
25905;SDS011;13713;52.552;13.204;2023-04-15T11:43:37;35.72;;;25.17;;
25905;SDS011;13713;52.552;13.204;2023-04-15T11:46:03;35.22;;;25.55;;
25905;SDS011;13713;52.552;13.204;2023-04-15T11:48:33;37.47;;;25.70;;
25905;SDS011;13713;52.552;13.204;2023-04-15T11:51:01;34.13;;;24.60;;
25905;SDS011;13713;52.552;13.204;2023-04-15T11:56:02;34.45;;;24.88;;
25905;SDS011;13713;52.552;13.204;2023-04-15T11:58:28;35.15;;;25.02;;
25905;SDS011;13713;52.552;13.204;2023-04-15T12:00:56;34.88;;;24.27;;
25905;SDS011;13713;52.552;13.204;2023-04-15T12:08:47;34.08;;;24.77;;
25905;SDS011;13713;52.552;13.204;2023-04-15T12:13:55;33.55;;;24.83;;
25905;SDS011;13713;52.552;13.204;2023-04-15T12:16:32;33.55;;;24.15;;
25905;SDS011;13713;52.552;13.204;2023-04-15T12:19:01;34.55;;;24.05;;
25905;SDS011;13713;52.552;13.204;2023-04-15T12:21:32;33.38;;;24.17;;
25905;SDS011;13713;52.552;13.204;2023-04-15T12:24:00;33.67;;;24.05;;
25905;SDS011;13713;52.552;13.204;2023-04-15T12:26:29;34.25;;;24.45;;
25905;SDS011;13713;52.552;13.204;2023-04-15T12:29:02;33.10;;;23.90;;
25905;SDS011;13713;52.552;13.204;2023-04-15T12:31:35;35.15;;;24.95;;
25905;SDS011;13713;52.552;13.204;2023-04-15T12:34:01;32.75;;;24.15;;
25905;SDS011;13713;52.552;13.204;2023-04-15T12:36:31;33.35;;;24.63;;
25905;SDS011;13713;52.552;13.204;2023-04-15T12:39:03;36.65;;;25.65;;
25905;SDS011;13713;52.552;13.204;2023-04-15T12:41:33;33.92;;;24.55;;
25905;SDS011;13713;52.552;13.204;2023-04-15T12:43:59;33.55;;;24.63;;
25905;SDS011;13713;52.552;13.204;2023-04-15T12:46:25;35.28;;;24.52;;
25905;SDS011;13713;52.552;13.204;2023-04-15T12:48:51;31.42;;;23.73;;
25905;SDS011;13713;52.552;13.204;2023-04-15T12:51:17;32.50;;;23.00;;
25905;SDS011;13713;52.552;13.204;2023-04-15T12:53:45;35.47;;;25.13;;
25905;SDS011;13713;52.552;13.204;2023-04-15T12:56:12;33.85;;;24.27;;
25905;SDS011;13713;52.552;13.204;2023-04-15T12:58:38;31.40;;;22.70;;
25905;SDS011;13713;52.552;13.204;2023-04-15T13:01:03;34.70;;;25.25;;
25905;SDS011;13713;52.552;13.204;2023-04-15T13:03:30;33.50;;;23.55;;
25905;SDS011;13713;52.552;13.204;2023-04-15T13:05:56;33.42;;;23.67;;
25905;SDS011;13713;52.552;13.204;2023-04-15T13:08:21;32.40;;;24.42;;
25905;SDS011;13713;52.552;13.204;2023-04-15T13:10:47;35.15;;;24.10;;
25905;SDS011;13713;52.552;13.204;2023-04-15T13:13:13;33.53;;;24.20;;
25905;SDS011;13713;52.552;13.204;2023-04-15T13:15:39;32.03;;;22.83;;
25905;SDS011;13713;52.552;13.204;2023-04-15T13:18:05;32.67;;;23.83;;
25905;SDS011;13713;52.552;13.204;2023-04-15T13:20:32;34.63;;;23.77;;
25905;SDS011;13713;52.552;13.204;2023-04-15T13:22:58;32.50;;;23.27;;
25905;SDS011;13713;52.552;13.204;2023-04-15T13:25:23;32.60;;;24.10;;
25905;SDS011;13713;52.552;13.204;2023-04-15T13:27:50;33.20;;;23.52;;
25905;SDS011;13713;52.552;13.204;2023-04-15T13:30:16;31.85;;;23.70;;
25905;SDS011;13713;52.552;13.204;2023-04-15T13:32:42;29.65;;;22.17;;
25905;SDS011;13713;52.552;13.204;2023-04-15T13:35:08;31.67;;;23.45;;
25905;SDS011;13713;52.552;13.204;2023-04-15T13:37:34;33.47;;;23.92;;
25905;SDS011;13713;52.552;13.204;2023-04-15T13:39:59;31.70;;;23.90;;
25905;SDS011;13713;52.552;13.204;2023-04-15T13:42:25;31.05;;;23.30;;
25905;SDS011;13713;52.552;13.204;2023-04-15T13:44:51;30.80;;;22.38;;
25905;SDS011;13713;52.552;13.204;2023-04-15T13:47:20;33.03;;;23.83;;
25905;SDS011;13713;52.552;13.204;2023-04-15T13:49:46;32.85;;;22.98;;
25905;SDS011;13713;52.552;13.204;2023-04-15T13:52:11;31.40;;;23.15;;
25905;SDS011;13713;52.552;13.204;2023-04-15T13:54:37;34.05;;;24.30;;
25905;SDS011;13713;52.552;13.204;2023-04-15T13:57:04;32.35;;;23.98;;
25905;SDS011;13713;52.552;13.204;2023-04-15T13:59:30;30.65;;;23.08;;
25905;SDS011;13713;52.552;13.204;2023-04-15T14:01:57;32.35;;;23.10;;
25905;SDS011;13713;52.552;13.204;2023-04-15T14:04:23;32.58;;;23.50;;
25905;SDS011;13713;52.552;13.204;2023-04-15T14:06:48;32.15;;;24.13;;
25905;SDS011;13713;52.552;13.204;2023-04-15T14:09:15;30.63;;;22.90;;
25905;SDS011;13713;52.552;13.204;2023-04-15T14:11:41;32.83;;;23.92;;
25905;SDS011;13713;52.552;13.204;2023-04-15T14:14:06;33.67;;;23.98;;
25905;SDS011;13713;52.552;13.204;2023-04-15T14:16:32;30.55;;;22.60;;
25905;SDS011;13713;52.552;13.204;2023-04-15T14:18:58;31.45;;;22.98;;
25905;SDS011;13713;52.552;13.204;2023-04-15T14:21:25;30.23;;;22.73;;
25905;SDS011;13713;52.552;13.204;2023-04-15T14:23:52;32.67;;;23.63;;
25905;SDS011;13713;52.552;13.204;2023-04-15T14:26:18;32.20;;;23.27;;
25905;SDS011;13713;52.552;13.204;2023-04-15T14:28:44;34.33;;;23.20;;